Amunt
Inicio > meteoXarxa
Fes-te'n soci

METEOXARXA

Xodos
Ubicació
Comarca l′Alcalatén
Altitud (msnm) 1100
Posició geogràfica 40° 14' 44.16" N, 00° 17' 15.03" W
Model Davis Vantage Pro2 calefactada
Presa de dades
Font de les dades Ajuntament de Xodos (Pablo Solsona Palazón)
Estadístiques. Resum
Data Temperatura (ºC) Humitat (%) Pressió (hPa) Vent (km/h) Precipit. (mm)
Mínima Mitjana Màxima Mínima Mitjana Màxima Mínima Mitjana Màxima Predom. Mitjana Ràfega màxima Total Dies de pluja
Mínima Mitjana Màxima Mínima Mitjana Màxima
Últimes dades diàries
24-02-2017 4,7     8,2     10,9 N 17,4 51,5 2,6  
23-02-2017 8,6     12,3     14,4 SW 7,2 69,2 0,0  
22-02-2017 8,4     11,4     13,9 SE 5,1 24,1 0,0  
21-02-2017 5,1     9,1     13,4 WSW 6,3 24,1 0,0  
20-02-2017 3,5     6,4     10,2 N 6,6 24,1 0,0  
19-02-2017 2,9     5,1     8,4 NE 8,7 30,6  
18-02-2017 4,6     7,3     10,4 NE 5,5 27,4 0,0  
17-02-2017 5,3     7,2     10,2 SE 4,8 20,9 0,0  
16-02-2017 4,6     6,2     8,6 SE 5,0 17,7 0,0  
15-02-2017 4,3     6,8     9,9 SE 5,1 22,5 0,0  
14-02-2017 5,4     7,5     10,4 WNW 9,0 56,3 0,0  
13-02-2017 5,5     6,4     7,8 NE 10,5 43,5 0,0  
12-02-2017 4,8     5,6     6,6 NE 12,9 37,0 0,0  
11-02-2017 1,7     3,6     5,1 NE 9,2 32,2 0,0  
10-02-2017 1,1     2,9     5,2 SE 7,4 24,1 0,0  
09-02-2017 0,6     3,2     8,1 NW 13,5 59,5 0,0  
08-02-2017 0,6     2,4     6,1 N 37,2 99,8 0,0  
07-02-2017 6,1     9,5     12,3 WNW 33,8 91,7 0,0  
06-02-2017 2,4     6,3     10,3 WNW 41,5 119,1 0,4  
05-02-2017 2,3     6,4     10,7 WNW 41,0 107,8 3,8  
04-02-2017 10,1     11,2     19,3 W 24,5 99,8 0,2  
19-01-2017 -2,8     -1,7     -0,2 N 26,9 0,0  
18-01-2017 -4,3     -2,4     0,7 N 18,8 38,6 0,0  
17-01-2017 -4,7     0,8     6,1 N 28,2 91,7 0,0  
16-01-2017 3,1     5,4     7,7 N 36,5 101,4 0,0  
15-01-2017 0,0     2,9     5,1 N 30,1 93,3 0,0  
14-01-2017 -0,1     1,1     2,8 N 29,0 91,7 0,0  
13-01-2017 0,3     4,9     10,9 WNW 21,4 72,4 0,0  
12-01-2017 8,1     11,7     15,8 WNW 9,0 56,3 0,0  
11-01-2017 4,9     6,8     9,7 N 26,1 106,2 0,0  
10-01-2017 4,9     6,0     7,6 N 31,4 106,2 0,4  
09-01-2017 3,9     5,9     8,0 N 8,0 35,4 0,0  
Dades del mes en curs (actualitzades fins l'últim dia disponible)
02/2017 0,6 4,4 10,1 6,9 5,1 10,1 19,3   14,9 119,1 7,0  
Últimes dades mensuals
12/2016 1,1 5,6 12,0 7,7 3,8 10,2 17,0 9,1 78,9 80,8 7
11/2016 1,7 6,3 14,5 8,9 5,9 11,6 18,6 12,8 90,1 96,6 11
10/2016 7,7 11,9 15,8 14,3 11,9 17,3 21,9 5,6 46,7 45,2 10
09/2016 11,0 13,4 14,8 17,0 16,9 21,7 28,5 6,6 45,1 20,6 6
Dades de l'any en curs (actualitzades fins l'últim dia disponible)
2017 -4,7 3,4 10,1 6,1 -0,2 9,3 19,3   16,1 119,1 7,4  
Últimes dades anuals
2016 1,1 9,3 15,8 12,0 3,8 15,2 28,5 8,5 90,1 243,2 34